sensor_id;sensor_type;location;lat;lon;timestamp;temperature;humidity
19888;DHT22;10106;51.332;12.336;2023-03-22T00:01:08;9.20;99.90
19888;DHT22;10106;51.332;12.336;2023-03-22T00:03:34;9.20;99.90
19888;DHT22;10106;51.332;12.336;2023-03-22T00:06:00;9.20;99.90
19888;DHT22;10106;51.332;12.336;2023-03-22T00:08:25;9.20;99.90
19888;DHT22;10106;51.332;12.336;2023-03-22T00:10:51;9.10;99.90
19888;DHT22;10106;51.332;12.336;2023-03-22T00:13:16;9.10;99.90
19888;DHT22;10106;51.332;12.336;2023-03-22T00:15:42;9.10;99.90
19888;DHT22;10106;51.332;12.336;2023-03-22T00:18:10;9.00;99.90
19888;DHT22;10106;51.332;12.336;2023-03-22T00:20:37;9.00;99.90
19888;DHT22;10106;51.332;12.336;2023-03-22T00:23:04;9.00;99.90
19888;DHT22;10106;51.332;12.336;2023-03-22T00:25:30;8.90;99.90
19888;DHT22;10106;51.332;12.336;2023-03-22T00:27:56;8.90;99.90
19888;DHT22;10106;51.332;12.336;2023-03-22T00:30:22;8.80;99.90
19888;DHT22;10106;51.332;12.336;2023-03-22T00:32:47;8.70;99.90
19888;DHT22;10106;51.332;12.336;2023-03-22T00:35:13;8.70;99.90
19888;DHT22;10106;51.332;12.336;2023-03-22T00:37:39;8.60;99.90
19888;DHT22;10106;51.332;12.336;2023-03-22T00:40:07;8.60;99.90
19888;DHT22;10106;51.332;12.336;2023-03-22T00:42:38;8.60;99.90
19888;DHT22;10106;51.332;12.336;2023-03-22T00:45:05;8.60;99.90
19888;DHT22;10106;51.332;12.336;2023-03-22T00:47:31;8.60;99.90
19888;DHT22;10106;51.332;12.336;2023-03-22T00:49:57;8.50;99.90
19888;DHT22;10106;51.332;12.336;2023-03-22T00:52:23;8.50;99.90
19888;DHT22;10106;51.332;12.336;2023-03-22T00:54:48;8.50;99.90
19888;DHT22;10106;51.332;12.336;2023-03-22T00:57:14;8.50;99.90
19888;DHT22;10106;51.332;12.336;2023-03-22T00:59:40;8.40;99.90
19888;DHT22;10106;51.332;12.336;2023-03-22T01:02:08;8.40;99.90
19888;DHT22;10106;51.332;12.336;2023-03-22T01:04:34;8.40;99.90
19888;DHT22;10106;51.332;12.336;2023-03-22T01:07:01;8.40;99.90
19888;DHT22;10106;51.332;12.336;2023-03-22T01:09:30;8.30;99.90
19888;DHT22;10106;51.332;12.336;2023-03-22T01:12:00;8.30;99.90
19888;DHT22;10106;51.332;12.336;2023-03-22T01:14:27;8.30;99.90
19888;DHT22;10106;51.332;12.336;2023-03-22T01:16:53;8.20;99.90
19888;DHT22;10106;51.332;12.336;2023-03-22T01:19:22;8.30;99.90
19888;DHT22;10106;51.332;12.336;2023-03-22T01:21:48;8.30;99.90
19888;DHT22;10106;51.332;12.336;2023-03-22T01:24:13;8.30;99.90
19888;DHT22;10106;51.332;12.336;2023-03-22T01:26:40;8.30;99.90
19888;DHT22;10106;51.332;12.336;2023-03-22T01:29:05;8.40;99.90
19888;DHT22;10106;51.332;12.336;2023-03-22T01:31:31;8.40;99.90
19888;DHT22;10106;51.332;12.336;2023-03-22T01:33:57;8.40;99.90
19888;DHT22;10106;51.332;12.336;2023-03-22T01:36:22;8.50;99.90
19888;DHT22;10106;51.332;12.336;2023-03-22T01:38:48;8.50;99.90
19888;DHT22;10106;51.332;12.336;2023-03-22T01:41:15;8.50;99.90
19888;DHT22;10106;51.332;12.336;2023-03-22T01:43:41;8.50;99.90
19888;DHT22;10106;51.332;12.336;2023-03-22T01:46:07;8.50;99.90
19888;DHT22;10106;51.332;12.336;2023-03-22T01:48:39;8.50;99.90
19888;DHT22;10106;51.332;12.336;2023-03-22T01:53:36;8.50;99.90
19888;DHT22;10106;51.332;12.336;2023-03-22T01:56:03;8.50;99.90
19888;DHT22;10106;51.332;12.336;2023-03-22T01:58:29;8.50;99.90
19888;DHT22;10106;51.332;12.336;2023-03-22T02:00:56;8.40;99.90
19888;DHT22;10106;51.332;12.336;2023-03-22T02:06:12;8.30;99.90
19888;DHT22;10106;51.332;12.336;2023-03-22T02:08:38;8.30;99.90
19888;DHT22;10106;51.332;12.336;2023-03-22T02:11:05;8.20;99.90
19888;DHT22;10106;51.332;12.336;2023-03-22T02:13:59;8.20;99.90
19888;DHT22;10106;51.332;12.336;2023-03-22T02:31:15;8.00;99.90
19888;DHT22;10106;51.332;12.336;2023-03-22T02:50:16;8.00;99.90
19888;DHT22;10106;51.332;12.336;2023-03-22T02:52:52;8.00;99.90
19888;DHT22;10106;51.332;12.336;2023-03-22T02:55:29;8.10;99.90
19888;DHT22;10106;51.332;12.336;2023-03-22T02:57:59;8.10;99.90
19888;DHT22;10106;51.332;12.336;2023-03-22T03:00:25;8.10;99.90
19888;DHT22;10106;51.332;12.336;2023-03-22T03:02:55;8.10;99.90
19888;DHT22;10106;51.332;12.336;2023-03-22T03:05:25;8.20;99.90
19888;DHT22;10106;51.332;12.336;2023-03-22T03:07:58;8.20;99.90
19888;DHT22;10106;51.332;12.336;2023-03-22T03:10:26;8.30;99.90
19888;DHT22;10106;51.332;12.336;2023-03-22T03:12:52;8.30;99.90
19888;DHT22;10106;51.332;12.336;2023-03-22T03:15:20;8.30;99.90
19888;DHT22;10106;51.332;12.336;2023-03-22T03:23:42;8.40;99.90
19888;DHT22;10106;51.332;12.336;2023-03-22T03:32:06;8.50;99.90
19888;DHT22;10106;51.332;12.336;2023-03-22T03:34:33;8.50;99.90
19888;DHT22;10106;51.332;12.336;2023-03-22T03:37:10;8.50;99.90
19888;DHT22;10106;51.332;12.336;2023-03-22T03:39:41;8.50;99.90
19888;DHT22;10106;51.332;12.336;2023-03-22T03:42:11;8.60;99.90
19888;DHT22;10106;51.332;12.336;2023-03-22T03:44:39;8.50;99.90
19888;DHT22;10106;51.332;12.336;2023-03-22T03:47:06;8.50;99.90
19888;DHT22;10106;51.332;12.336;2023-03-22T03:49:33;8.50;99.90
19888;DHT22;10106;51.332;12.336;2023-03-22T03:51:59;8.50;99.90
19888;DHT22;10106;51.332;12.336;2023-03-22T03:54:25;8.50;99.90
19888;DHT22;10106;51.332;12.336;2023-03-22T03:56:51;8.50;99.90
19888;DHT22;10106;51.332;12.336;2023-03-22T03:59:18;8.50;99.90
19888;DHT22;10106;51.332;12.336;2023-03-22T04:01:46;8.50;99.90
19888;DHT22;10106;51.332;12.336;2023-03-22T04:04:20;8.60;99.90
19888;DHT22;10106;51.332;12.336;2023-03-22T04:06:52;8.60;99.90
19888;DHT22;10106;51.332;12.336;2023-03-22T04:09:24;8.60;99.90
19888;DHT22;10106;51.332;12.336;2023-03-22T04:11:52;8.60;99.90
19888;DHT22;10106;51.332;12.336;2023-03-22T04:14:18;8.60;99.90
19888;DHT22;10106;51.332;12.336;2023-03-22T04:16:43;8.60;99.90
19888;DHT22;10106;51.332;12.336;2023-03-22T04:19:09;8.60;99.90
19888;DHT22;10106;51.332;12.336;2023-03-22T04:21:35;8.60;99.90
19888;DHT22;10106;51.332;12.336;2023-03-22T04:24:01;8.60;99.90
19888;DHT22;10106;51.332;12.336;2023-03-22T04:26:26;8.50;99.90
19888;DHT22;10106;51.332;12.336;2023-03-22T04:28:52;8.50;99.90
19888;DHT22;10106;51.332;12.336;2023-03-22T04:31:18;8.40;99.90
19888;DHT22;10106;51.332;12.336;2023-03-22T04:33:43;8.30;99.90
19888;DHT22;10106;51.332;12.336;2023-03-22T04:36:12;8.30;99.90
19888;DHT22;10106;51.332;12.336;2023-03-22T04:38:42;8.20;99.90
19888;DHT22;10106;51.332;12.336;2023-03-22T04:41:09;8.20;99.90
19888;DHT22;10106;51.332;12.336;2023-03-22T04:43:34;8.20;99.90
19888;DHT22;10106;51.332;12.336;2023-03-22T04:46:07;8.20;99.90
19888;DHT22;10106;51.332;12.336;2023-03-22T04:48:38;8.10;99.90
19888;DHT22;10106;51.332;12.336;2023-03-22T04:51:05;8.10;99.90
19888;DHT22;10106;51.332;12.336;2023-03-22T04:53:31;8.10;99.90
19888;DHT22;10106;51.332;12.336;2023-03-22T04:55:57;8.00;99.90
19888;DHT22;10106;51.332;12.336;2023-03-22T04:58:24;8.00;99.90
19888;DHT22;10106;51.332;12.336;2023-03-22T05:00:51;8.00;99.90
19888;DHT22;10106;51.332;12.336;2023-03-22T05:03:19;8.00;99.90
19888;DHT22;10106;51.332;12.336;2023-03-22T05:05:56;8.00;99.90
19888;DHT22;10106;51.332;12.336;2023-03-22T05:08:24;7.90;99.90
19888;DHT22;10106;51.332;12.336;2023-03-22T05:10:51;8.00;99.90
19888;DHT22;10106;51.332;12.336;2023-03-22T05:13:17;8.00;99.90
19888;DHT22;10106;51.332;12.336;2023-03-22T05:15:43;7.90;99.90
19888;DHT22;10106;51.332;12.336;2023-03-22T05:18:10;7.90;99.90
19888;DHT22;10106;51.332;12.336;2023-03-22T05:20:35;8.00;99.90
19888;DHT22;10106;51.332;12.336;2023-03-22T05:23:01;8.00;99.90
19888;DHT22;10106;51.332;12.336;2023-03-22T05:25:27;8.00;99.90
19888;DHT22;10106;51.332;12.336;2023-03-22T05:27:53;8.00;99.90
19888;DHT22;10106;51.332;12.336;2023-03-22T05:30:19;8.00;99.90
19888;DHT22;10106;51.332;12.336;2023-03-22T05:32:45;8.00;99.90
19888;DHT22;10106;51.332;12.336;2023-03-22T05:35:11;8.00;99.90
19888;DHT22;10106;51.332;12.336;2023-03-22T05:37:37;8.00;99.90
19888;DHT22;10106;51.332;12.336;2023-03-22T05:40:04;8.00;99.90
19888;DHT22;10106;51.332;12.336;2023-03-22T05:42:30;8.00;99.90
19888;DHT22;10106;51.332;12.336;2023-03-22T05:44:56;8.00;99.90
19888;DHT22;10106;51.332;12.336;2023-03-22T05:47:22;8.00;99.90
19888;DHT22;10106;51.332;12.336;2023-03-22T05:49:47;8.00;99.90
19888;DHT22;10106;51.332;12.336;2023-03-22T05:52:13;8.10;99.90
19888;DHT22;10106;51.332;12.336;2023-03-22T05:54:39;8.10;99.90
19888;DHT22;10106;51.332;12.336;2023-03-22T05:57:05;8.10;99.90
19888;DHT22;10106;51.332;12.336;2023-03-22T05:59:30;8.20;99.90
19888;DHT22;10106;51.332;12.336;2023-03-22T06:07:07;8.30;99.90
19888;DHT22;10106;51.332;12.336;2023-03-22T06:09:32;8.40;99.90
19888;DHT22;10106;51.332;12.336;2023-03-22T06:11:58;8.50;99.90
19888;DHT22;10106;51.332;12.336;2023-03-22T06:14:23;8.60;99.90
19888;DHT22;10106;51.332;12.336;2023-03-22T06:16:49;8.70;99.90
19888;DHT22;10106;51.332;12.336;2023-03-22T06:19:15;8.80;99.90
19888;DHT22;10106;51.332;12.336;2023-03-22T06:21:41;9.00;99.90
19888;DHT22;10106;51.332;12.336;2023-03-22T06:24:06;9.00;99.90
19888;DHT22;10106;51.332;12.336;2023-03-22T06:26:32;9.10;99.90
19888;DHT22;10106;51.332;12.336;2023-03-22T06:28:58;9.20;99.90
19888;DHT22;10106;51.332;12.336;2023-03-22T06:31:23;9.20;99.90
19888;DHT22;10106;51.332;12.336;2023-03-22T06:33:51;9.20;99.90
19888;DHT22;10106;51.332;12.336;2023-03-22T06:36:18;9.30;99.90
19888;DHT22;10106;51.332;12.336;2023-03-22T06:38:44;9.30;99.90
19888;DHT22;10106;51.332;12.336;2023-03-22T06:41:10;9.30;99.90
19888;DHT22;10106;51.332;12.336;2023-03-22T06:43:35;9.40;99.90
19888;DHT22;10106;51.332;12.336;2023-03-22T06:46:01;9.50;99.90
19888;DHT22;10106;51.332;12.336;2023-03-22T06:48:27;9.70;99.90
19888;DHT22;10106;51.332;12.336;2023-03-22T06:50:52;9.80;99.90
19888;DHT22;10106;51.332;12.336;2023-03-22T06:53:18;10.00;99.90
19888;DHT22;10106;51.332;12.336;2023-03-22T06:55:44;10.20;99.90
19888;DHT22;10106;51.332;12.336;2023-03-22T06:58:10;10.40;99.90
19888;DHT22;10106;51.332;12.336;2023-03-22T07:00:36;10.50;99.90
19888;DHT22;10106;51.332;12.336;2023-03-22T07:03:03;10.60;99.90
19888;DHT22;10106;51.332;12.336;2023-03-22T07:05:28;10.70;99.90
19888;DHT22;10106;51.332;12.336;2023-03-22T07:07:54;10.60;99.90
19888;DHT22;10106;51.332;12.336;2023-03-22T07:10:20;10.60;99.90
19888;DHT22;10106;51.332;12.336;2023-03-22T07:12:46;10.60;99.90
19888;DHT22;10106;51.332;12.336;2023-03-22T07:15:12;10.60;99.90
19888;DHT22;10106;51.332;12.336;2023-03-22T07:17:37;10.60;99.90
19888;DHT22;10106;51.332;12.336;2023-03-22T07:20:03;10.70;99.90
19888;DHT22;10106;51.332;12.336;2023-03-22T07:22:29;10.90;99.90
19888;DHT22;10106;51.332;12.336;2023-03-22T07:24:55;11.00;99.90
19888;DHT22;10106;51.332;12.336;2023-03-22T07:27:21;11.10;99.90
19888;DHT22;10106;51.332;12.336;2023-03-22T07:29:47;11.30;99.90
19888;DHT22;10106;51.332;12.336;2023-03-22T07:32:12;11.30;99.90
19888;DHT22;10106;51.332;12.336;2023-03-22T07:34:38;11.40;99.90
19888;DHT22;10106;51.332;12.336;2023-03-22T07:37:03;11.50;99.90
19888;DHT22;10106;51.332;12.336;2023-03-22T07:39:29;11.60;99.90
19888;DHT22;10106;51.332;12.336;2023-03-22T07:41:55;11.80;99.90
19888;DHT22;10106;51.332;12.336;2023-03-22T07:44:21;12.00;99.90
19888;DHT22;10106;51.332;12.336;2023-03-22T07:46:47;12.30;99.90
19888;DHT22;10106;51.332;12.336;2023-03-22T07:49:16;12.70;99.90
19888;DHT22;10106;51.332;12.336;2023-03-22T07:51:45;13.10;99.90
19888;DHT22;10106;51.332;12.336;2023-03-22T07:54:11;13.40;99.90
19888;DHT22;10106;51.332;12.336;2023-03-22T07:56:36;14.40;99.90
19888;DHT22;10106;51.332;12.336;2023-03-22T07:59:02;15.20;99.90
19888;DHT22;10106;51.332;12.336;2023-03-22T08:01:39;16.00;99.90
19888;DHT22;10106;51.332;12.336;2023-03-22T08:04:05;17.50;99.90
19888;DHT22;10106;51.332;12.336;2023-03-22T08:06:34;17.50;99.90
19888;DHT22;10106;51.332;12.336;2023-03-22T08:09:04;17.50;99.90
19888;DHT22;10106;51.332;12.336;2023-03-22T08:11:33;18.80;99.90
19888;DHT22;10106;51.332;12.336;2023-03-22T08:13:58;20.40;99.90
19888;DHT22;10106;51.332;12.336;2023-03-22T08:16:24;22.00;99.90
19888;DHT22;10106;51.332;12.336;2023-03-22T08:18:50;23.40;99.70
19888;DHT22;10106;51.332;12.336;2023-03-22T08:21:16;23.00;99.90
19888;DHT22;10106;51.332;12.336;2023-03-22T08:23:41;21.90;96.10
19888;DHT22;10106;51.332;12.336;2023-03-22T08:26:08;20.60;99.90
19888;DHT22;10106;51.332;12.336;2023-03-22T08:28:34;19.80;99.90
19888;DHT22;10106;51.332;12.336;2023-03-22T08:31:00;20.10;99.90
19888;DHT22;10106;51.332;12.336;2023-03-22T08:33:25;19.30;99.90
19888;DHT22;10106;51.332;12.336;2023-03-22T08:36:06;18.80;99.90
19888;DHT22;10106;51.332;12.336;2023-03-22T08:38:32;20.20;99.90
19888;DHT22;10106;51.332;12.336;2023-03-22T08:40:58;22.20;97.80
19888;DHT22;10106;51.332;12.336;2023-03-22T08:43:23;24.30;91.60
19888;DHT22;10106;51.332;12.336;2023-03-22T08:45:49;26.00;83.40
19888;DHT22;10106;51.332;12.336;2023-03-22T08:48:15;27.20;72.40
19888;DHT22;10106;51.332;12.336;2023-03-22T08:50:40;27.70;68.30
19888;DHT22;10106;51.332;12.336;2023-03-22T08:53:06;27.80;64.70
19888;DHT22;10106;51.332;12.336;2023-03-22T08:55:31;27.80;63.10
19888;DHT22;10106;51.332;12.336;2023-03-22T08:58:00;28.20;60.70
19888;DHT22;10106;51.332;12.336;2023-03-22T09:00:26;28.80;59.70
19888;DHT22;10106;51.332;12.336;2023-03-22T09:02:51;29.10;58.60
19888;DHT22;10106;51.332;12.336;2023-03-22T09:05:17;28.80;58.20
19888;DHT22;10106;51.332;12.336;2023-03-22T09:07:43;28.10;57.10
19888;DHT22;10106;51.332;12.336;2023-03-22T09:10:09;26.50;57.20
19888;DHT22;10106;51.332;12.336;2023-03-22T09:12:36;25.90;59.50
19888;DHT22;10106;51.332;12.336;2023-03-22T09:15:01;26.10;59.10
19888;DHT22;10106;51.332;12.336;2023-03-22T09:17:27;27.60;58.50
19888;DHT22;10106;51.332;12.336;2023-03-22T09:19:53;28.10;55.90
19888;DHT22;10106;51.332;12.336;2023-03-22T09:22:18;27.90;55.00
19888;DHT22;10106;51.332;12.336;2023-03-22T09:24:44;27.20;55.80
19888;DHT22;10106;51.332;12.336;2023-03-22T09:27:10;27.30;55.60
19888;DHT22;10106;51.332;12.336;2023-03-22T09:29:36;27.80;56.10
19888;DHT22;10106;51.332;12.336;2023-03-22T09:32:01;28.00;54.80
19888;DHT22;10106;51.332;12.336;2023-03-22T09:34:27;28.30;54.70
19888;DHT22;10106;51.332;12.336;2023-03-22T09:36:53;28.40;53.60
19888;DHT22;10106;51.332;12.336;2023-03-22T09:39:18;28.70;53.10
19888;DHT22;10106;51.332;12.336;2023-03-22T09:41:56;28.30;53.00
19888;DHT22;10106;51.332;12.336;2023-03-22T09:44:35;27.80;53.70
19888;DHT22;10106;51.332;12.336;2023-03-22T09:47:03;26.70;55.00
19888;DHT22;10106;51.332;12.336;2023-03-22T09:49:37;27.00;55.30
19888;DHT22;10106;51.332;12.336;2023-03-22T09:52:05;26.00;55.50
19888;DHT22;10106;51.332;12.336;2023-03-22T09:54:36;24.20;58.60
19888;DHT22;10106;51.332;12.336;2023-03-22T10:02:20;25.10;59.70
19888;DHT22;10106;51.332;12.336;2023-03-22T10:07:32;24.00;60.00
19888;DHT22;10106;51.332;12.336;2023-03-22T10:10:05;22.20;64.80
19888;DHT22;10106;51.332;12.336;2023-03-22T10:12:34;21.70;68.90
19888;DHT22;10106;51.332;12.336;2023-03-22T10:17:29;20.50;74.80
19888;DHT22;10106;51.332;12.336;2023-03-22T10:22:29;19.10;85.10
19888;DHT22;10106;51.332;12.336;2023-03-22T10:24:57;18.60;91.80
19888;DHT22;10106;51.332;12.336;2023-03-22T10:27:25;18.30;95.00
19888;DHT22;10106;51.332;12.336;2023-03-22T10:30:05;18.30;96.70
19888;DHT22;10106;51.332;12.336;2023-03-22T10:32:44;18.50;96.30
19888;DHT22;10106;51.332;12.336;2023-03-22T10:35:14;18.70;94.30
19888;DHT22;10106;51.332;12.336;2023-03-22T10:37:43;18.80;94.10
19888;DHT22;10106;51.332;12.336;2023-03-22T10:40:19;18.80;94.70
19888;DHT22;10106;51.332;12.336;2023-03-22T10:42:55;18.50;94.50
19888;DHT22;10106;51.332;12.336;2023-03-22T10:45:23;18.40;96.50
19888;DHT22;10106;51.332;12.336;2023-03-22T10:48:06;18.50;96.20
19888;DHT22;10106;51.332;12.336;2023-03-22T10:50:35;18.40;96.40
19888;DHT22;10106;51.332;12.336;2023-03-22T10:55:41;18.50;96.90
19888;DHT22;10106;51.332;12.336;2023-03-22T11:00:36;18.60;95.10
19888;DHT22;10106;51.332;12.336;2023-03-22T11:03:04;18.80;95.50
19888;DHT22;10106;51.332;12.336;2023-03-22T11:05:31;19.00;94.70
19888;DHT22;10106;51.332;12.336;2023-03-22T11:07:57;18.80;94.40
19888;DHT22;10106;51.332;12.336;2023-03-22T11:10:27;18.90;94.60
19888;DHT22;10106;51.332;12.336;2023-03-22T11:13:10;19.10;94.10
19888;DHT22;10106;51.332;12.336;2023-03-22T11:15:48;19.10;94.00
19888;DHT22;10106;51.332;12.336;2023-03-22T11:18:15;19.00;94.10
19888;DHT22;10106;51.332;12.336;2023-03-22T11:20:51;18.80;92.90
19888;DHT22;10106;51.332;12.336;2023-03-22T11:23:18;18.60;94.20
19888;DHT22;10106;51.332;12.336;2023-03-22T11:25:47;18.30;95.40
19888;DHT22;10106;51.332;12.336;2023-03-22T11:31:06;18.00;95.20
19888;DHT22;10106;51.332;12.336;2023-03-22T11:33:33;17.90;93.70
19888;DHT22;10106;51.332;12.336;2023-03-22T11:36:02;18.00;93.30
19888;DHT22;10106;51.332;12.336;2023-03-22T11:41:23;17.80;92.70
19888;DHT22;10106;51.332;12.336;2023-03-22T11:43:53;17.80;92.20
19888;DHT22;10106;51.332;12.336;2023-03-22T11:46:20;18.10;92.50
19888;DHT22;10106;51.332;12.336;2023-03-22T11:48:51;18.50;91.10
19888;DHT22;10106;51.332;12.336;2023-03-22T11:51:33;19.00;89.30
19888;DHT22;10106;51.332;12.336;2023-03-22T11:56:40;19.00;84.30
19888;DHT22;10106;51.332;12.336;2023-03-22T12:02:16;18.90;83.00
19888;DHT22;10106;51.332;12.336;2023-03-22T12:04:43;18.90;82.90
19888;DHT22;10106;51.332;12.336;2023-03-22T12:07:20;19.10;82.30
19888;DHT22;10106;51.332;12.336;2023-03-22T12:10:20;19.40;79.80
19888;DHT22;10106;51.332;12.336;2023-03-22T12:12:53;19.60;78.50
19888;DHT22;10106;51.332;12.336;2023-03-22T12:15:28;19.80;75.70
19888;DHT22;10106;51.332;12.336;2023-03-22T12:18:23;19.70;74.20
19888;DHT22;10106;51.332;12.336;2023-03-22T12:21:00;19.40;74.50
19888;DHT22;10106;51.332;12.336;2023-03-22T12:23:30;19.10;77.20
19888;DHT22;10106;51.332;12.336;2023-03-22T12:28:48;18.60;77.60
19888;DHT22;10106;51.332;12.336;2023-03-22T12:31:21;18.60;79.80
19888;DHT22;10106;51.332;12.336;2023-03-22T12:33:51;18.80;80.00
19888;DHT22;10106;51.332;12.336;2023-03-22T12:36:20;19.00;79.00
19888;DHT22;10106;51.332;12.336;2023-03-22T12:38:55;19.30;78.80
19888;DHT22;10106;51.332;12.336;2023-03-22T12:41:31;19.50;77.60
19888;DHT22;10106;51.332;12.336;2023-03-22T12:44:02;19.50;76.90
19888;DHT22;10106;51.332;12.336;2023-03-22T12:46:39;19.50;77.50
19888;DHT22;10106;51.332;12.336;2023-03-22T12:54:59;19.00;77.90
19888;DHT22;10106;51.332;12.336;2023-03-22T12:57:25;18.90;78.60
19888;DHT22;10106;51.332;12.336;2023-03-22T12:59:53;19.00;79.60
19888;DHT22;10106;51.332;12.336;2023-03-22T13:02:30;19.10;79.60
19888;DHT22;10106;51.332;12.336;2023-03-22T13:04:58;18.90;78.00
19888;DHT22;10106;51.332;12.336;2023-03-22T13:07:52;18.70;78.60
19888;DHT22;10106;51.332;12.336;2023-03-22T13:13:14;18.40;80.30
19888;DHT22;10106;51.332;12.336;2023-03-22T13:15:58;18.20;80.30
19888;DHT22;10106;51.332;12.336;2023-03-22T13:21:18;18.20;83.10
19888;DHT22;10106;51.332;12.336;2023-03-22T13:26:18;18.20;82.50
19888;DHT22;10106;51.332;12.336;2023-03-22T13:28:56;18.30;83.70
19888;DHT22;10106;51.332;12.336;2023-03-22T13:31:40;18.30;84.50
19888;DHT22;10106;51.332;12.336;2023-03-22T13:34:16;18.30;84.20
19888;DHT22;10106;51.332;12.336;2023-03-22T13:36:51;18.30;85.40
19888;DHT22;10106;51.332;12.336;2023-03-22T13:39:18;18.40;84.50
19888;DHT22;10106;51.332;12.336;2023-03-22T13:41:58;18.50;84.00
19888;DHT22;10106;51.332;12.336;2023-03-22T13:44:39;18.60;83.80
19888;DHT22;10106;51.332;12.336;2023-03-22T13:50:09;18.30;85.40
19888;DHT22;10106;51.332;12.336;2023-03-22T13:53:03;18.20;86.30
19888;DHT22;10106;51.332;12.336;2023-03-22T13:58:35;17.90;90.50
19888;DHT22;10106;51.332;12.336;2023-03-22T14:01:15;17.90;90.70
19888;DHT22;10106;51.332;12.336;2023-03-22T14:03:43;18.00;91.30
19888;DHT22;10106;51.332;12.336;2023-03-22T14:06:34;18.10;91.40
19888;DHT22;10106;51.332;12.336;2023-03-22T14:09:12;18.20;91.30
19888;DHT22;10106;51.332;12.336;2023-03-22T14:11:47;18.30;90.80
19888;DHT22;10106;51.332;12.336;2023-03-22T14:14:21;18.30;90.80
19888;DHT22;10106;51.332;12.336;2023-03-22T14:16:51;18.10;90.40
19888;DHT22;10106;51.332;12.336;2023-03-22T14:19:21;18.10;90.10
19888;DHT22;10106;51.332;12.336;2023-03-22T14:22:01;18.10;89.10
19888;DHT22;10106;51.332;12.336;2023-03-22T14:24:29;18.10;86.00
19888;DHT22;10106;51.332;12.336;2023-03-22T14:26:59;17.90;86.80
19888;DHT22;10106;51.332;12.336;2023-03-22T14:29:47;17.90;88.80
19888;DHT22;10106;51.332;12.336;2023-03-22T14:32:23;17.90;88.10
19888;DHT22;10106;51.332;12.336;2023-03-22T14:35:09;17.80;87.60
19888;DHT22;10106;51.332;12.336;2023-03-22T14:37:37;17.80;88.50
19888;DHT22;10106;51.332;12.336;2023-03-22T14:40:27;17.70;88.10
19888;DHT22;10106;51.332;12.336;2023-03-22T14:42:53;17.60;87.50
19888;DHT22;10106;51.332;12.336;2023-03-22T14:45:20;17.40;86.80
19888;DHT22;10106;51.332;12.336;2023-03-22T14:47:47;17.40;86.00
19888;DHT22;10106;51.332;12.336;2023-03-22T14:50:17;17.30;83.80
19888;DHT22;10106;51.332;12.336;2023-03-22T14:52:46;17.30;82.30
19888;DHT22;10106;51.332;12.336;2023-03-22T14:55:21;17.30;81.20
19888;DHT22;10106;51.332;12.336;2023-03-22T14:57:59;17.40;82.10
19888;DHT22;10106;51.332;12.336;2023-03-22T15:00:26;17.20;82.80
19888;DHT22;10106;51.332;12.336;2023-03-22T15:03:01;17.10;84.40
19888;DHT22;10106;51.332;12.336;2023-03-22T15:05:41;17.10;85.50
19888;DHT22;10106;51.332;12.336;2023-03-22T15:10:46;17.10;87.40
19888;DHT22;10106;51.332;12.336;2023-03-22T15:13:13;17.20;87.70
19888;DHT22;10106;51.332;12.336;2023-03-22T15:15:41;17.30;86.70
19888;DHT22;10106;51.332;12.336;2023-03-22T15:18:14;17.30;84.10
19888;DHT22;10106;51.332;12.336;2023-03-22T15:20:44;17.30;83.50
19888;DHT22;10106;51.332;12.336;2023-03-22T15:25:47;17.20;84.50
19888;DHT22;10106;51.332;12.336;2023-03-22T15:28:18;17.20;85.10
19888;DHT22;10106;51.332;12.336;2023-03-22T15:30:50;17.20;85.50
19888;DHT22;10106;51.332;12.336;2023-03-22T15:33:26;17.20;86.40
19888;DHT22;10106;51.332;12.336;2023-03-22T15:35:56;17.10;87.10
19888;DHT22;10106;51.332;12.336;2023-03-22T15:38:28;17.00;86.80
19888;DHT22;10106;51.332;12.336;2023-03-22T15:40:56;17.00;87.90
19888;DHT22;10106;51.332;12.336;2023-03-22T15:43:33;16.90;89.00
19888;DHT22;10106;51.332;12.336;2023-03-22T15:46:10;16.80;90.10
19888;DHT22;10106;51.332;12.336;2023-03-22T15:51:28;16.70;90.70
19888;DHT22;10106;51.332;12.336;2023-03-22T15:54:04;16.70;91.50
19888;DHT22;10106;51.332;12.336;2023-03-22T15:56:36;16.70;92.00
19888;DHT22;10106;51.332;12.336;2023-03-22T15:59:03;16.60;92.40
19888;DHT22;10106;51.332;12.336;2023-03-22T16:01:41;16.60;93.30
19888;DHT22;10106;51.332;12.336;2023-03-22T16:04:30;16.50;93.90
19888;DHT22;10106;51.332;12.336;2023-03-22T16:06:57;16.50;94.40
19888;DHT22;10106;51.332;12.336;2023-03-22T16:09:23;16.50;95.00
19888;DHT22;10106;51.332;12.336;2023-03-22T16:11:49;16.40;95.70
19888;DHT22;10106;51.332;12.336;2023-03-22T16:14:16;16.30;96.20
19888;DHT22;10106;51.332;12.336;2023-03-22T16:16:44;16.20;97.50
19888;DHT22;10106;51.332;12.336;2023-03-22T16:19:09;16.10;97.90
19888;DHT22;10106;51.332;12.336;2023-03-22T16:21:35;16.10;98.70
19888;DHT22;10106;51.332;12.336;2023-03-22T16:24:03;16.00;99.30
19888;DHT22;10106;51.332;12.336;2023-03-22T16:26:29;15.90;99.90
19888;DHT22;10106;51.332;12.336;2023-03-22T16:28:56;15.90;99.90
19888;DHT22;10106;51.332;12.336;2023-03-22T16:31:24;15.80;99.90
19888;DHT22;10106;51.332;12.336;2023-03-22T16:33:50;15.80;99.90
19888;DHT22;10106;51.332;12.336;2023-03-22T16:36:19;15.70;99.90
19888;DHT22;10106;51.332;12.336;2023-03-22T16:38:45;15.60;99.90
19888;DHT22;10106;51.332;12.336;2023-03-22T16:41:23;15.60;99.90
19888;DHT22;10106;51.332;12.336;2023-03-22T16:43:51;15.50;99.90
19888;DHT22;10106;51.332;12.336;2023-03-22T16:46:18;15.40;99.90
19888;DHT22;10106;51.332;12.336;2023-03-22T16:48:45;15.40;99.90
19888;DHT22;10106;51.332;12.336;2023-03-22T16:51:29;15.40;99.90
19888;DHT22;10106;51.332;12.336;2023-03-22T16:53:55;15.30;99.90
19888;DHT22;10106;51.332;12.336;2023-03-22T16:56:23;15.30;99.90
19888;DHT22;10106;51.332;12.336;2023-03-22T16:58:50;15.20;99.90
19888;DHT22;10106;51.332;12.336;2023-03-22T17:01:18;15.20;99.90
19888;DHT22;10106;51.332;12.336;2023-03-22T17:03:45;15.10;99.90
19888;DHT22;10106;51.332;12.336;2023-03-22T17:06:14;15.10;99.90
19888;DHT22;10106;51.332;12.336;2023-03-22T17:08:40;15.10;99.90
19888;DHT22;10106;51.332;12.336;2023-03-22T17:11:14;15.00;99.90
19888;DHT22;10106;51.332;12.336;2023-03-22T17:13:40;14.90;99.90
19888;DHT22;10106;51.332;12.336;2023-03-22T17:16:06;14.90;99.90
19888;DHT22;10106;51.332;12.336;2023-03-22T17:18:33;14.80;99.90
19888;DHT22;10106;51.332;12.336;2023-03-22T17:21:00;14.80;99.90
19888;DHT22;10106;51.332;12.336;2023-03-22T17:23:26;14.80;99.90
19888;DHT22;10106;51.332;12.336;2023-03-22T17:25:51;14.70;99.90
19888;DHT22;10106;51.332;12.336;2023-03-22T17:28:17;14.70;99.90